createdAt,value
2019-03-20T00:01:12.267Z,91.20
2019-03-20T00:03:38.547Z,91.90
2019-03-20T00:06:04.856Z,92.50
2019-03-20T00:08:31.142Z,92.40
2019-03-20T00:11:03.469Z,91.80
2019-03-20T00:13:35.926Z,92.00
2019-03-20T00:16:02.219Z,92.50
2019-03-20T00:18:28.573Z,92.10
2019-03-20T00:20:57.874Z,92.00
2019-03-20T00:23:24.181Z,92.40
2019-03-20T00:25:50.490Z,93.00
2019-03-20T00:28:16.766Z,92.90
2019-03-20T00:30:43.042Z,93.20
2019-03-20T00:33:09.434Z,93.10
2019-03-20T00:35:41.761Z,92.70
2019-03-20T00:38:08.035Z,92.30
2019-03-20T00:40:34.325Z,93.10
2019-03-20T00:43:00.633Z,93.20
2019-03-20T00:45:26.930Z,93.70
2019-03-20T00:47:53.233Z,93.00
2019-03-20T00:50:19.715Z,92.80
2019-03-20T00:52:51.837Z,92.00
2019-03-20T00:55:18.524Z,91.70
2019-03-20T00:57:44.814Z,92.80
2019-03-20T01:00:21.411Z,93.10
2019-03-20T01:02:47.702Z,93.20
2019-03-20T01:05:13.998Z,93.30
2019-03-20T01:07:40.277Z,93.60
2019-03-20T01:10:21.330Z,93.90
2019-03-20T01:12:47.598Z,93.60
2019-03-20T01:15:14.207Z,92.60
2019-03-20T01:17:41.780Z,92.40
2019-03-20T01:20:12.645Z,92.00
2019-03-20T01:22:38.913Z,92.30
2019-03-20T01:25:07.922Z,92.20
2019-03-20T01:27:34.231Z,92.00
2019-03-20T01:30:12.291Z,92.50
2019-03-20T01:32:38.605Z,93.50
2019-03-20T01:35:05.906Z,93.60
2019-03-20T01:37:32.234Z,93.60
2019-03-20T01:39:58.455Z,93.60
2019-03-20T01:42:24.837Z,93.20
2019-03-20T01:44:51.112Z,92.90
2019-03-20T01:47:20.581Z,93.10
2019-03-20T01:49:46.902Z,92.80
2019-03-20T01:52:13.177Z,91.90
2019-03-20T01:54:39.454Z,92.20
2019-03-20T01:57:05.786Z,92.60
2019-03-20T01:59:32.073Z,92.90
2019-03-20T02:01:58.355Z,93.30
2019-03-20T02:04:24.673Z,93.20
2019-03-20T02:06:50.968Z,93.00
2019-03-20T02:09:17.277Z,92.30
2019-03-20T02:11:43.556Z,92.10
2019-03-20T02:14:09.831Z,92.10
2019-03-20T02:16:36.169Z,92.40
2019-03-20T02:19:02.447Z,92.40
2019-03-20T02:21:28.789Z,91.90
2019-03-20T02:23:55.071Z,91.90
2019-03-20T02:26:21.348Z,92.50
2019-03-20T02:28:47.653Z,93.00
2019-03-20T02:31:14.014Z,92.90
2019-03-20T02:33:40.297Z,92.90
2019-03-20T02:36:06.649Z,92.40
2019-03-20T02:38:32.916Z,92.30
2019-03-20T02:40:59.186Z,92.30
2019-03-20T02:43:25.491Z,92.00
2019-03-20T02:45:51.813Z,91.70
2019-03-20T02:48:18.091Z,91.60
2019-03-20T02:50:45.454Z,91.40
2019-03-20T02:53:11.732Z,91.60
2019-03-20T02:55:38.016Z,91.60
2019-03-20T02:58:05.455Z,91.20
2019-03-20T03:00:31.892Z,91.10
2019-03-20T03:02:58.160Z,91.20
2019-03-20T03:05:24.436Z,91.20
2019-03-20T03:07:56.551Z,91.70
2019-03-20T03:10:22.830Z,92.30
2019-03-20T03:12:49.124Z,92.80
2019-03-20T03:15:16.443Z,92.30
2019-03-20T03:17:42.709Z,91.60
2019-03-20T03:20:11.378Z,91.10
2019-03-20T03:22:37.811Z,91.10
2019-03-20T03:25:05.846Z,90.90
2019-03-20T03:27:35.319Z,90.90
2019-03-20T03:30:04.002Z,90.60
2019-03-20T03:32:30.353Z,90.30
2019-03-20T03:34:56.603Z,90.80
2019-03-20T03:37:22.884Z,92.00
2019-03-20T03:39:49.188Z,92.20
2019-03-20T03:42:15.454Z,92.70
2019-03-20T03:44:41.775Z,92.80
2019-03-20T03:47:10.055Z,92.80
2019-03-20T03:49:36.307Z,92.70
2019-03-20T03:52:02.664Z,92.40
2019-03-20T03:54:28.938Z,91.90
2019-03-20T03:56:55.260Z,90.80
2019-03-20T03:59:21.539Z,91.00
2019-03-20T04:01:47.836Z,91.80
2019-03-20T04:04:14.120Z,92.40
2019-03-20T04:06:40.482Z,92.30
2019-03-20T04:09:06.763Z,91.70
2019-03-20T04:11:33.141Z,91.10
2019-03-20T04:13:59.429Z,90.50
2019-03-20T04:16:25.867Z,91.10
2019-03-20T04:18:53.201Z,91.30
2019-03-20T04:21:21.489Z,91.40
2019-03-20T04:23:47.808Z,91.70
2019-03-20T04:26:14.108Z,91.90
2019-03-20T04:28:40.386Z,91.80
2019-03-20T04:31:06.701Z,91.60
2019-03-20T04:33:32.972Z,91.40
2019-03-20T04:36:01.243Z,90.70
2019-03-20T04:38:36.371Z,90.20
2019-03-20T04:41:03.664Z,89.60
2019-03-20T04:43:29.932Z,89.10
2019-03-20T04:45:56.224Z,89.10
2019-03-20T04:48:22.497Z,89.50
2019-03-20T04:50:48.813Z,90.30
2019-03-20T04:53:15.077Z,90.30
2019-03-20T04:55:41.353Z,90.60
2019-03-20T04:58:07.652Z,90.50
2019-03-20T05:00:33.940Z,90.40
2019-03-20T05:03:01.120Z,91.00
2019-03-20T05:05:27.419Z,91.00
2019-03-20T05:07:56.783Z,90.60
2019-03-20T05:10:23.082Z,91.00
2019-03-20T05:12:51.354Z,91.60
2019-03-20T05:15:19.159Z,91.90
2019-03-20T05:17:45.518Z,92.50
2019-03-20T05:20:18.814Z,92.70
2019-03-20T05:22:45.089Z,92.90
2019-03-20T05:25:11.402Z,93.20
2019-03-20T05:27:37.683Z,93.30
2019-03-20T05:30:07.310Z,93.50
2019-03-20T05:32:39.691Z,93.60
2019-03-20T05:35:06.685Z,94.00
2019-03-20T05:37:47.029Z,93.80
2019-03-20T05:40:16.851Z,93.60
2019-03-20T05:42:46.366Z,93.80
2019-03-20T05:45:17.634Z,93.90
2019-03-20T05:47:45.974Z,93.50
2019-03-20T05:50:13.453Z,93.30
2019-03-20T05:53:36.408Z,93.70
2019-03-20T05:56:10.921Z,93.70
2019-03-20T05:58:44.370Z,93.50
2019-03-20T06:01:51.410Z,92.80
2019-03-20T06:04:45.949Z,91.90
2019-03-20T06:07:21.779Z,91.20
2019-03-20T06:09:48.403Z,90.90
2019-03-20T06:12:17.867Z,91.00
2019-03-20T06:14:50.178Z,90.40
2019-03-20T06:17:16.548Z,89.90
2019-03-20T06:19:46.137Z,88.10
2019-03-20T06:22:15.564Z,88.10
2019-03-20T06:24:43.013Z,90.10
2019-03-20T06:27:34.186Z,90.20
2019-03-20T06:30:28.573Z,90.40
2019-03-20T06:33:03.243Z,90.00
2019-03-20T06:35:38.414Z,90.00
2019-03-20T06:38:15.055Z,90.00
2019-03-20T06:40:48.359Z,90.00
2019-03-20T06:43:17.839Z,89.90
2019-03-20T06:46:08.949Z,89.00
2019-03-20T06:48:35.787Z,89.00
2019-03-20T06:51:02.184Z,88.40
2019-03-20T06:53:36.011Z,87.90
2019-03-20T06:56:15.927Z,86.70
2019-03-20T06:59:11.368Z,85.80
2019-03-20T07:02:00.682Z,84.80
2019-03-20T07:04:40.097Z,84.40
2019-03-20T07:07:17.531Z,84.70
2019-03-20T07:09:55.217Z,84.20
2019-03-20T07:12:27.616Z,82.10
2019-03-20T07:15:02.730Z,80.30
2019-03-20T07:17:30.222Z,79.30
2019-03-20T07:20:05.438Z,77.80
2019-03-20T07:22:48.981Z,76.80
2019-03-20T07:25:18.109Z,74.80
2019-03-20T07:28:03.225Z,73.80
2019-03-20T07:30:32.915Z,72.60
2019-03-20T07:33:17.482Z,72.40
2019-03-20T07:35:44.862Z,72.60
2019-03-20T07:38:14.671Z,72.50
2019-03-20T07:40:58.590Z,72.80
2019-03-20T07:43:31.957Z,71.30
2019-03-20T07:46:03.442Z,73.00
2019-03-20T07:48:35.913Z,73.40
2019-03-20T07:51:07.719Z,72.40
2019-03-20T07:53:37.199Z,70.60
2019-03-20T07:56:32.427Z,71.60
2019-03-20T07:58:58.773Z,71.80
2019-03-20T08:01:31.654Z,72.70
2019-03-20T08:04:10.542Z,71.20
2019-03-20T08:06:44.183Z,70.60
2019-03-20T08:09:18.331Z,70.00
2019-03-20T08:11:44.595Z,68.60
2019-03-20T08:14:18.470Z,67.30
2019-03-20T08:16:46.917Z,64.40
2019-03-20T08:19:13.772Z,60.30
2019-03-20T08:21:46.177Z,56.50
2019-03-20T08:24:12.707Z,55.30
2019-03-20T08:26:42.090Z,55.60
2019-03-20T08:29:11.905Z,56.40
2019-03-20T08:31:38.349Z,57.00
2019-03-20T08:34:06.054Z,55.30
2019-03-20T08:36:41.680Z,52.60
2019-03-20T08:39:11.443Z,50.00
2019-03-20T08:41:48.453Z,45.60
2019-03-20T08:44:21.821Z,42.90
2019-03-20T08:46:58.953Z,42.30
2019-03-20T08:49:31.399Z,43.80
2019-03-20T08:52:01.098Z,44.70
2019-03-20T08:54:41.899Z,44.80
2019-03-20T08:57:17.315Z,45.60
2019-03-20T08:59:44.170Z,47.60
2019-03-20T09:05:47.803Z,50.50
2019-03-20T09:08:28.459Z,51.40
2019-03-20T09:10:56.033Z,51.70
2019-03-20T09:13:32.331Z,53.00
2019-03-20T09:16:05.181Z,54.80
2019-03-20T09:18:31.771Z,56.20
2019-03-20T09:20:58.699Z,56.20
2019-03-20T09:23:25.123Z,55.20
2019-03-20T09:25:51.581Z,54.70
2019-03-20T09:28:21.182Z,54.30
2019-03-20T09:30:54.698Z,54.50
2019-03-20T09:33:27.358Z,54.70
2019-03-20T09:35:57.091Z,56.60
2019-03-20T09:38:23.463Z,57.20
2019-03-20T09:40:56.718Z,57.90
2019-03-20T09:43:29.531Z,58.70
2019-03-20T09:45:57.135Z,59.40
2019-03-20T09:48:35.746Z,58.20
2019-03-20T09:51:05.134Z,58.10
2019-03-20T09:53:31.445Z,58.40
2019-03-20T09:55:58.234Z,57.00
2019-03-20T09:58:30.941Z,56.60
2019-03-20T10:01:00.767Z,56.30
2019-03-20T10:03:34.994Z,55.90
2019-03-20T10:06:07.634Z,56.10
2019-03-20T10:08:40.895Z,55.50
2019-03-20T10:11:13.200Z,56.90
2019-03-20T10:13:42.732Z,59.30
2019-03-20T10:16:12.203Z,58.20
2019-03-20T10:18:39.557Z,59.50
2019-03-20T10:21:11.152Z,59.60
2019-03-20T10:23:50.217Z,58.60
2019-03-20T10:26:16.538Z,56.50
2019-03-20T10:28:46.423Z,54.60
2019-03-20T10:31:29.082Z,54.30
2019-03-20T10:33:58.614Z,53.40
2019-03-20T10:36:25.491Z,52.30
2019-03-20T10:39:16.552Z,52.30
2019-03-20T10:41:43.069Z,51.70
2019-03-20T10:44:21.411Z,52.00
2019-03-20T10:46:50.846Z,53.70
2019-03-20T10:49:31.284Z,54.40
2019-03-20T10:52:00.782Z,55.60
2019-03-20T10:54:33.423Z,55.20
2019-03-20T10:57:00.480Z,54.40
2019-03-20T10:59:30.984Z,53.90
2019-03-20T11:02:22.598Z,55.20
2019-03-20T11:04:57.089Z,53.00
2019-03-20T11:07:33.738Z,51.60
2019-03-20T11:10:08.272Z,52.00
2019-03-20T11:12:40.423Z,52.50
2019-03-20T11:15:15.075Z,52.70
2019-03-20T11:17:44.833Z,52.80
2019-03-20T11:20:22.026Z,51.80
2019-03-20T11:22:57.903Z,51.70
2019-03-20T11:25:30.428Z,50.40
2019-03-20T11:28:03.248Z,52.00
2019-03-20T11:30:30.448Z,52.00
2019-03-20T11:33:02.783Z,53.40
2019-03-20T11:35:29.135Z,52.80
2019-03-20T11:37:58.621Z,52.00
2019-03-20T11:40:33.801Z,51.30
2019-03-20T11:43:03.372Z,51.80
2019-03-20T11:45:29.711Z,52.40
2019-03-20T11:47:57.089Z,53.50
2019-03-20T11:50:31.718Z,55.70
2019-03-20T11:52:58.008Z,54.30
2019-03-20T11:55:26.560Z,53.80
2019-03-20T11:58:12.936Z,53.40
2019-03-20T12:00:45.261Z,53.90
2019-03-20T12:03:11.939Z,52.60
2019-03-20T12:05:39.717Z,52.90
2019-03-20T12:08:06.459Z,53.10
2019-03-20T12:10:33.595Z,52.50
2019-03-20T12:13:11.617Z,52.40
2019-03-20T12:15:39.718Z,53.40
2019-03-20T12:18:12.558Z,51.70
2019-03-20T12:20:43.835Z,52.10
2019-03-20T12:23:16.031Z,51.80
2019-03-20T12:25:43.494Z,53.00
2019-03-20T12:28:25.688Z,52.00
2019-03-20T12:30:54.046Z,51.30
2019-03-20T12:33:31.638Z,51.50
2019-03-20T12:36:10.445Z,52.20
2019-03-20T12:38:43.694Z,52.30
2019-03-20T12:41:23.578Z,50.30
2019-03-20T12:43:55.868Z,49.00
2019-03-20T12:46:40.933Z,49.80
2019-03-20T12:48:59.793Z,51.40
2019-03-20T12:51:32.166Z,51.00
2019-03-20T12:54:10.573Z,49.90
2019-03-20T12:56:38.487Z,49.90
2019-03-20T12:59:05.022Z,50.80
2019-03-20T13:01:31.420Z,50.70
2019-03-20T13:03:58.531Z,49.80
2019-03-20T13:06:25.312Z,49.80
2019-03-20T13:08:58.836Z,49.70
2019-03-20T13:11:28.369Z,50.60
2019-03-20T13:13:56.610Z,50.30
2019-03-20T13:16:25.992Z,50.80
2019-03-20T13:18:58.529Z,51.30
2019-03-20T13:21:32.937Z,50.80
2019-03-20T13:24:03.494Z,50.40
2019-03-20T13:26:42.023Z,50.00
2019-03-20T13:29:14.148Z,50.00
2019-03-20T13:31:43.533Z,48.90
2019-03-20T13:34:29.514Z,48.20
2019-03-20T13:37:04.804Z,48.80
2019-03-20T13:39:40.441Z,48.60
2019-03-20T13:42:13.340Z,48.20
2019-03-20T13:45:26.095Z,47.60
2019-03-20T13:47:57.098Z,49.80
2019-03-20T13:50:29.977Z,50.70
2019-03-20T13:53:05.868Z,49.70
2019-03-20T13:55:33.408Z,50.30
2019-03-20T13:58:00.831Z,49.60
2019-03-20T14:00:31.992Z,48.70
2019-03-20T14:03:08.235Z,49.00
2019-03-20T14:05:34.557Z,49.90
2019-03-20T14:08:17.608Z,49.50
2019-03-20T14:10:54.414Z,49.80
2019-03-20T14:13:31.008Z,49.90
2019-03-20T14:16:01.691Z,49.40
2019-03-20T14:18:31.204Z,49.70
2019-03-20T14:21:15.088Z,49.10
2019-03-20T14:23:45.449Z,49.90
2019-03-20T14:26:14.989Z,50.40
2019-03-20T14:28:41.408Z,50.30
2019-03-20T14:31:14.891Z,50.20
2019-03-20T14:33:43.439Z,50.30
2019-03-20T14:36:16.228Z,50.20
2019-03-20T14:38:49.541Z,49.10
2019-03-20T14:41:27.196Z,48.40
2019-03-20T14:44:00.379Z,49.10
2019-03-20T14:46:38.929Z,49.00
2019-03-20T14:49:11.354Z,48.60
2019-03-20T14:51:39.201Z,48.70
2019-03-20T14:54:05.912Z,49.00
2019-03-20T14:56:36.133Z,49.50
2019-03-20T14:59:15.440Z,50.30
2019-03-20T15:01:48.087Z,51.20
2019-03-20T15:04:15.161Z,50.30
2019-03-20T15:06:54.645Z,50.40
2019-03-20T15:09:24.362Z,49.30
2019-03-20T15:11:55.982Z,49.80
2019-03-20T15:14:22.605Z,49.60
2019-03-20T15:17:12.814Z,49.50
2019-03-20T15:19:42.662Z,49.60
2019-03-20T15:22:10.177Z,49.20
2019-03-20T15:24:48.681Z,49.00
2019-03-20T15:27:27.562Z,49.40
2019-03-20T15:30:07.373Z,49.80
2019-03-20T15:32:33.992Z,49.80
2019-03-20T15:35:03.894Z,49.50
2019-03-20T15:37:34.017Z,49.80
2019-03-20T15:43:26.936Z,48.50
2019-03-20T15:46:21.237Z,48.30
2019-03-20T15:48:53.915Z,49.30
2019-03-20T15:51:24.952Z,49.30
2019-03-20T15:54:03.838Z,48.90
2019-03-20T15:56:39.303Z,48.80
2019-03-20T15:59:16.725Z,49.30
2019-03-20T16:01:57.282Z,49.10
2019-03-20T16:04:24.628Z,49.30
2019-03-20T16:07:02.323Z,50.90
2019-03-20T16:09:36.010Z,51.00
2019-03-20T16:12:08.528Z,51.00
2019-03-20T16:14:46.773Z,51.40
2019-03-20T16:17:13.108Z,52.70
2019-03-20T16:19:42.509Z,52.90
2019-03-20T16:22:11.883Z,53.40
2019-03-20T16:24:50.304Z,53.20
2019-03-20T16:27:19.816Z,53.10
2019-03-20T16:29:51.306Z,52.90
2019-03-20T16:32:26.781Z,53.30
2019-03-20T16:35:00.311Z,53.40
2019-03-20T16:37:28.607Z,53.20
2019-03-20T16:39:54.852Z,53.90
2019-03-20T16:42:36.319Z,53.50
2019-03-20T16:45:07.691Z,54.40
2019-03-20T16:47:37.075Z,55.40
2019-03-20T16:50:08.283Z,55.00
2019-03-20T16:53:01.338Z,55.00
2019-03-20T16:55:27.627Z,55.00
2019-03-20T16:57:55.967Z,55.80
2019-03-20T17:00:42.627Z,56.10
2019-03-20T17:03:08.900Z,55.90
2019-03-20T17:05:55.208Z,56.30
2019-03-20T17:08:26.116Z,56.70
2019-03-20T17:10:54.606Z,57.40
2019-03-20T17:13:38.337Z,57.10
2019-03-20T17:16:27.312Z,57.00
2019-03-20T17:19:01.491Z,57.40
2019-03-20T17:21:32.079Z,57.20
2019-03-20T17:23:58.369Z,57.20
2019-03-20T17:26:24.831Z,57.80
2019-03-20T17:28:51.119Z,58.50
2019-03-20T17:31:21.214Z,59.20
2019-03-20T17:34:13.565Z,59.20
2019-03-20T17:36:46.145Z,59.50
2019-03-20T17:39:22.288Z,59.10
2019-03-20T17:42:01.243Z,58.80
2019-03-20T17:44:34.819Z,59.20
2019-03-20T17:47:04.161Z,59.60
2019-03-20T17:49:33.667Z,60.40
2019-03-20T17:52:18.843Z,60.40
2019-03-20T17:54:45.115Z,60.60
2019-03-20T17:57:26.261Z,60.90
2019-03-20T17:59:57.968Z,60.50
2019-03-20T18:02:24.524Z,60.60
2019-03-20T18:05:17.015Z,61.00
2019-03-20T18:07:43.937Z,61.10
2019-03-20T18:10:16.559Z,62.10
2019-03-20T18:12:44.120Z,62.60
2019-03-20T18:15:13.492Z,63.70
2019-03-20T18:17:56.255Z,62.30
2019-03-20T18:20:28.748Z,61.40
2019-03-20T18:23:01.410Z,61.50
2019-03-20T18:25:38.111Z,62.30
2019-03-20T18:28:35.573Z,62.50
2019-03-20T18:31:08.892Z,62.80
2019-03-20T18:33:40.173Z,64.10
2019-03-20T18:36:36.343Z,64.80
2019-03-20T18:39:05.405Z,65.10
2019-03-20T18:41:57.144Z,65.80
2019-03-20T18:44:21.417Z,66.00
2019-03-20T18:46:57.025Z,65.60
2019-03-20T18:49:23.577Z,66.90
2019-03-20T18:51:49.834Z,67.10
2019-03-20T18:54:19.201Z,66.90
2019-03-20T18:56:51.796Z,67.00
2019-03-20T18:59:34.500Z,66.70
2019-03-20T19:02:03.793Z,67.10
2019-03-20T19:04:45.190Z,67.10
2019-03-20T19:07:18.170Z,67.60
2019-03-20T19:09:47.689Z,67.60
2019-03-20T19:12:15.130Z,68.00
2019-03-20T19:14:41.766Z,68.70
2019-03-20T19:17:09.892Z,69.30
2019-03-20T19:19:39.906Z,69.30
2019-03-20T19:22:12.824Z,69.40
2019-03-20T19:24:39.180Z,69.60
2019-03-20T19:27:23.881Z,69.70
2019-03-20T19:29:52.503Z,70.30
2019-03-20T19:32:31.777Z,70.30
2019-03-20T19:35:46.794Z,70.90
2019-03-20T19:38:17.351Z,72.30
2019-03-20T19:40:56.934Z,73.60
2019-03-20T19:43:30.325Z,73.90
2019-03-20T19:46:18.428Z,74.10
2019-03-20T19:48:50.353Z,75.40
2019-03-20T19:51:18.111Z,74.70
2019-03-20T19:53:49.730Z,75.40
2019-03-20T19:56:16.692Z,75.20
2019-03-20T19:59:00.848Z,75.50
2019-03-20T20:01:33.761Z,76.90
2019-03-20T20:04:24.752Z,76.90
2019-03-20T20:06:53.205Z,77.00
2019-03-20T20:09:24.180Z,79.10
2019-03-20T20:11:50.638Z,80.60
2019-03-20T20:14:23.260Z,80.70
2019-03-20T20:16:52.738Z,81.40
2019-03-20T20:19:22.310Z,81.10
2019-03-20T20:21:57.811Z,80.10
2019-03-20T20:24:47.087Z,79.40
2019-03-20T20:27:13.379Z,79.50
2019-03-20T20:29:39.648Z,79.30
2019-03-20T20:32:18.184Z,79.70
2019-03-20T20:34:44.517Z,80.10
2019-03-20T20:37:10.911Z,80.00
2019-03-20T20:39:37.195Z,80.60
2019-03-20T20:42:03.435Z,80.90
2019-03-20T20:44:32.807Z,80.80
2019-03-20T20:46:59.108Z,80.70
2019-03-20T20:49:25.487Z,81.00
2019-03-20T20:51:51.806Z,81.80
2019-03-20T20:54:18.042Z,82.90
2019-03-20T20:56:44.339Z,82.80
2019-03-20T20:59:10.598Z,82.50
2019-03-20T21:01:36.882Z,82.10
2019-03-20T21:04:03.155Z,81.90
2019-03-20T21:06:30.465Z,82.00
2019-03-20T21:08:56.784Z,82.70
2019-03-20T21:11:23.148Z,83.10
2019-03-20T21:13:49.814Z,84.30
2019-03-20T21:16:16.095Z,84.00
2019-03-20T21:18:46.151Z,84.30
2019-03-20T21:21:14.504Z,86.30
2019-03-20T21:24:20.204Z,87.80
2019-03-20T21:27:25.462Z,87.20
2019-03-20T21:30:07.522Z,87.00
2019-03-20T21:32:46.884Z,88.00
2019-03-20T21:35:36.251Z,87.40
2019-03-20T21:38:03.879Z,86.80
2019-03-20T21:40:53.317Z,87.70
2019-03-20T21:43:46.273Z,89.90
2019-03-20T21:46:28.302Z,89.90
2019-03-20T21:48:57.620Z,90.50
2019-03-20T21:51:23.919Z,91.70
2019-03-20T21:54:26.739Z,92.00
2019-03-20T21:57:03.819Z,91.90
2019-03-20T21:59:40.739Z,91.30
2019-03-20T22:02:27.566Z,90.90
2019-03-20T22:04:53.828Z,91.40
2019-03-20T22:07:20.115Z,91.40
2019-03-20T22:09:52.956Z,90.80
2019-03-20T22:12:28.810Z,90.30
2019-03-20T22:15:13.935Z,90.10
2019-03-20T22:18:00.928Z,90.20
2019-03-20T22:20:33.802Z,90.40
2019-03-20T22:23:12.743Z,90.60
2019-03-20T22:25:55.144Z,90.40
2019-03-20T22:28:31.313Z,90.10
2019-03-20T22:30:57.752Z,90.80
2019-03-20T22:34:02.574Z,90.30
2019-03-20T22:36:29.083Z,89.90
2019-03-20T22:39:11.448Z,88.40
2019-03-20T22:41:47.552Z,88.80
2019-03-20T22:44:13.831Z,88.40
2019-03-20T22:47:00.795Z,87.20
2019-03-20T22:49:50.723Z,87.70
2019-03-20T22:52:32.369Z,88.10
2019-03-20T22:55:23.316Z,89.90
2019-03-20T22:58:11.767Z,90.60
2019-03-20T23:00:39.127Z,90.60
2019-03-20T23:03:26.774Z,90.20
2019-03-20T23:05:54.026Z,89.40
2019-03-20T23:08:20.297Z,89.00
2019-03-20T23:10:49.491Z,89.20
2019-03-20T23:13:19.230Z,89.40
2019-03-20T23:15:43.787Z,89.10
2019-03-20T23:18:10.067Z,88.30
2019-03-20T23:20:36.333Z,88.10
2019-03-20T23:23:02.631Z,88.30
2019-03-20T23:25:28.937Z,88.20
2019-03-20T23:27:55.251Z,90.00
2019-03-20T23:30:25.350Z,90.70
2019-03-20T23:32:51.656Z,91.40
2019-03-20T23:35:19.087Z,91.80
2019-03-20T23:37:58.628Z,91.60
2019-03-20T23:40:24.831Z,91.40
2019-03-20T23:42:54.286Z,91.40
2019-03-20T23:45:20.614Z,90.70
2019-03-20T23:48:05.589Z,90.70
2019-03-20T23:50:31.881Z,91.10
2019-03-20T23:52:58.211Z,91.70
2019-03-20T23:55:24.526Z,91.60
2019-03-20T23:57:50.787Z,91.20
